Terminal Aerodrome Forecast
Issued by NWS

Home | Current Version | Previous Version | Text Only | Print | Product List | Glossary Off
Versions: 1 2 3 4 5 6 7 8 9 10 11 12 13 14 15 16 17 18 19 20

783
FTUS41 KCLE 200259 AAA
TAFFDY
TAF AMD
KFDY 200259Z 2003/2024 13005KT P6SM SCT025 BKN150
      TEMPO 2003/2005 BKN025
     FM200500 15005KT P6SM SCT025 BKN150
     FM201100 17008KT P6SM VCSH OVC035
     FM201400 18010KT P6SM BKN070
     FM201900 18008KT 4SM SHRA OVC025=

USA.gov is the U.S. government's official web portal to all federal, state and local government web resources and services.